Date,TemperatureHighF,TemperatureAvgF,TemperatureLowF,DewpointHighF,DewpointAvgF,DewpointLowF,HumidityHigh,HumidityAvg,HumidityLow,PressureMaxIn,PressureMinIn,WindSpeedMaxMPH,WindSpeedAvgMPH,GustSpeedMaxMPH,PrecipitationSumIn
2014-1-1,13.8,10.9,4.4,7.7,2.6,-7.4,76,69,61,30.39,30.27,0,0,0,0.00
2014-1-2,13.2,9.7,0.3,7.3,2.5,-7.2,78,72,66,30.28,30.15,0,0,0,0.00
2014-1-3,16.7,5.7,-4.3,3.3,-3.4,-10.7,74,66,54,30.37,29.99,0,0,0,0.00
2014-1-4,30.0,22.4,12.3,24.6,13.8,-8.6,87,69,58,29.99,29.79,6,0,6,0.00
2014-1-5,28.4,23.0,15.8,24.8,19.1,-2.9,87,85,82,30.04,29.64,0,0,0,0.00
2014-1-6,15.6,5.4,-8.8,11.1,-0.7,-15.1,84,76,64,29.98,29.63,0,0,0,0.00
2014-1-7,7.5,-3.3,-12.8,-1.2,-9.8,-18.7,75,73,65,30.23,29.98,0,0,0,0.00
2014-1-8,17.7,7.1,-0.5,8.0,0.4,-6.0,78,73,64,30.47,30.22,0,0,0,0.00
2014-1-9,18.3,7.1,-2.7,12.9,1.0,-8.1,79,76,68,30.54,30.23,0,0,0,0.00
2014-1-10,37.9,29.8,18.3,35.2,25.5,-4.7,90,85,79,30.23,29.58,0,0,0,0.47
2014-1-11,39.3,36.1,31.4,37.2,32.5,-2.2,92,88,81,29.60,29.26,13,1,13,0.14
2014-1-12,38.4,33.7,31.6,28.4,26.7,25.1,83,75,66,29.85,29.59,2,0,2,0.00
2014-1-13,41.7,37.0,33.9,33.2,30.0,27.1,81,76,71,29.65,29.49,0,0,0,0.00
2014-1-14,38.4,31.9,25.5,28.9,24.4,19.3,87,74,58,29.75,29.61,0,0,0,0.00
2014-1-15,28.5,23.6,19.0,21.4,14.7,-7.4,80,69,61,29.94,29.61,0,0,0,0.00
2014-1-16,26.0,21.7,17.6,21.9,15.3,9.5,85,76,69,29.87,29.57,0,0,0,0.00
2014-1-17,29.3,24.3,19.5,25.9,18.0,-3.4,87,78,67,29.86,29.55,0,0,0,0.00
2014-1-18,22.8,19.4,16.3,16.4,13.5,10.4,80,77,74,29.87,29.77,0,0,0,0.00
2014-1-19,28.0,21.8,11.4,22.9,16.5,-4.4,84,80,75,29.77,29.46,14,0,14,0.02
2014-1-20,27.6,17.4,6.9,24.0,9.7,-4.7,86,72,63,30.09,29.47,8,0,8,0.00
2014-1-21,14.0,4.4,-1.1,-0.4,-5.5,-9.6,69,63,50,30.21,30.08,13,1,13,0.00
2014-1-22,11.4,4.6,-3.8,4.7,-1.9,-10.6,79,74,69,30.15,29.88,9,0,9,0.00
2014-1-23,19.5,8.6,-0.2,5.7,0.7,-34.4,80,70,53,30.42,29.92,13,0,13,0.00
2014-1-24,17.4,8.3,-21.7,11.1,0.2,-26.4,80,69,53,30.38,29.38,27,5,27,0.00
2014-1-25,23.5,15.1,1.9,19.9,6.4,-6.5,86,68,47,29.73,29.22,26,5,26,0.00
2014-1-26,20.4,9.7,0.1,15.2,3.6,-6.9,81,76,67,29.73,29.32,19,2,19,0.00
2014-1-27,15.0,5.4,-4.0,9.4,-4.9,-24.4,78,62,48,30.23,29.40,16,4,16,0.00
2014-1-28,11.1,1.1,-5.9,0.6,-6.2,-12.1,77,71,58,30.25,30.05,16,3,16,0.00
2014-1-29,19.9,10.6,0.3,7.5,1.8,-15.1,77,67,57,30.08,29.94,22,7,22,0.00
2014-1-30,27.6,19.0,10.5,22.8,9.4,-8.6,84,66,55,30.03,29.66,19,6,19,0.00
2014-1-31,29.8,25.2,20.3,24.6,17.0,12.8,84,71,60,30.10,29.73,10,1,10,0.00
2014-2-1,24.6,21.6,18.3,20.2,16.5,-7.1,84,80,74,30.11,29.83,0,0,0,0.00
2014-2-2,24.8,19.1,6.6,17.6,12.9,-3.9,84,77,63,30.24,29.96,10,0,10,0.00
2014-2-3,24.6,9.8,-1.1,11.8,2.5,-6.6,80,72,57,30.33,30.23,8,0,8,0.00
2014-2-4,24.9,15.8,8.2,15.4,9.0,-5.2,79,74,66,30.39,30.16,4,0,4,0.00
2014-2-5,25.7,18.5,11.1,17.8,11.7,-3.9,86,75,56,30.32,30.00,12,2,12,0.00
2014-2-6,19.0,11.9,6.9,10.8,4.6,0.4,79,72,65,30.32,30.17,61,2,61,0.00
2014-2-7,16.1,10.0,3.9,6.2,2.3,-2.0,78,71,62,30.21,30.17,21,5,21,0.96
2014-2-8,19.7,10.1,-0.7,10.9,3.4,-6.2,80,74,67,30.25,30.12,13,3,13,0.00
2014-2-9,25.5,17.1,12.9,14.8,10.7,-16.8,81,76,62,30.13,29.99,9,2,9,0.00
2014-2-10,19.0,12.4,4.8,11.0,4.8,-0.5,80,71,60,30.35,30.11,13,2,13,0.00
2014-2-11,19.2,9.6,3.3,4.1,-1.0,-5.5,70,62,49,30.46,30.34,9,0,9,0.00
2014-2-12,21.3,10.4,-1.4,9.0,1.1,-8.4,75,66,55,30.39,30.04,10,2,10,0.00
2014-2-13,34.3,24.1,13.6,17.5,12.4,4.4,73,61,44,30.04,29.47,9,1,9,0.04
2014-2-14,28.7,24.0,14.3,21.2,16.5,-8.0,82,74,65,29.80,29.42,12,2,12,0.00
2014-2-15,23.1,11.2,2.8,8.4,2.2,-6.9,75,67,51,30.02,29.80,9,1,9,0.00
2014-2-16,22.8,15.5,4.2,15.2,7.8,-8.0,79,72,63,30.34,29.92,10,1,10,0.02
2014-2-17,21.9,10.8,-1.1,13.4,2.8,-7.4,80,70,50,30.36,29.63,9,0,9,0.00
2014-2-18,37.2,25.7,14.1,28.3,18.3,-4.7,82,74,64,29.93,29.59,15,3,15,0.12
2014-2-19,38.8,33.7,26.2,28.4,24.9,19.7,76,70,66,29.59,29.56,12,2,12,0.02
2014-2-21,28.2,28.2,28.2,14.5,14.5,14.5,56,56,56,29.63,29.63,18,10,18,0.00
2014-2-22,33.2,27.6,25.5,17.0,14.6,13.9,64,58,50,29.92,29.86,17,8,17,38.52
2014-2-23,27.6,21.6,16.3,15.0,10.8,8.4,72,63,49,30.01,29.92,19,7,19,0.00
2014-2-24,20.8,17.5,10.9,10.9,7.6,2.4,72,65,58,30.14,29.99,21,6,21,0.00
2014-2-25,22.8,14.6,9.1,13.7,5.9,0.4,77,68,61,30.13,29.95,17,4,17,0.00
2014-2-26,15.6,8.5,1.9,3.7,-1.4,-5.6,75,64,54,30.05,29.53,20,6,20,0.00
2014-2-27,10.9,10.2,9.1,5.7,4.8,3.9,79,78,76,29.53,29.47,9,3,9,0.00
2014-2-28,12.7,12.7,12.7,-3.7,-3.7,-3.7,47,47,47,30.26,30.26,5,5,5,0.00
2014-3-1,22.1,16.0,11.1,9.8,7.8,4.7,76,70,56,30.28,30.14,9,4,9,38.52
2014-3-2,16.7,9.5,3.0,4.7,-1.5,-9.3,75,61,48,30.35,30.25,9,4,9,38.52
2014-3-3,3.0,1.7,0.1,-9.1,-10.2,-11.5,58,57,56,30.36,30.34,4,1,4,0.00
2014-3-5,23.5,15.1,8.2,12.0,6.8,2.2,76,69,60,30.52,30.46,13,4,13,0.00
2014-3-6,32.7,16.3,2.8,13.7,5.6,-3.3,77,64,44,30.52,30.13,8,1,9,0.04
2014-3-7,47.1,28.9,12.7,27.2,15.8,4.3,72,59,42,30.13,29.84,11,2,11,0.00
2014-3-8,38.4,29.8,20.8,26.2,20.4,-6.6,74,68,57,30.15,29.87,13,3,13,0.00
2014-3-9,35.7,25.1,12.9,24.2,15.5,-32.7,77,67,54,30.16,29.74,20,6,20,0.00
2014-3-10,51.2,40.5,32.5,35.0,30.7,24.2,78,68,53,29.74,29.46,19,6,19,0.00
2014-3-11,49.2,41.3,34.3,34.4,31.1,-6.0,79,68,52,29.76,29.57,9,2,9,0.00
2014-3-12,34.3,23.2,9.8,26.9,15.7,-0.6,87,73,54,30.02,29.67,18,6,18,0.06
2014-3-13,24.9,15.0,2.8,14.9,3.1,-8.3,69,59,45,30.11,29.88,14,4,14,0.00
2014-3-14,50.7,37.1,22.8,34.2,25.8,-18.9,79,64,48,29.88,29.44,26,7,26,0.02
2014-3-15,38.1,31.2,16.8,30.0,18.9,-6.0,78,61,45,30.30,29.64,19,6,19,0.00
2014-3-16,23.5,14.9,7.8,10.2,3.2,-1.3,67,59,45,30.42,30.21,17,4,17,0.00
2014-3-17,37.4,19.9,8.4,16.4,6.8,-1.3,71,57,41,30.21,29.91,9,1,9,0.00
2014-3-18,47.6,33.1,23.1,31.1,21.5,12.5,72,62,52,30.00,29.87,9,1,9,0.00
2014-3-19,43.7,37.3,30.5,40.1,32.2,-22.7,89,82,72,29.88,29.53,13,1,16,0.12
2014-3-20,37.2,33.3,27.6,28.4,23.8,-5.5,83,69,20,30.03,29.74,16,3,16,0.00
2014-3-21,46.9,32.8,21.5,27.0,21.6,-4.9,81,65,43,30.06,29.71,11,0,11,0.06
2014-3-22,36.5,31.1,19.9,28.7,23.4,-20.8,87,73,55,30.25,29.66,13,2,13,0.10
2014-3-23,24.0,18.3,11.1,8.3,4.9,-10.6,69,56,46,30.36,30.25,14,2,14,0.00
2014-3-24,29.4,20.4,11.8,13.1,7.9,-8.3,73,59,44,30.33,30.03,16,3,16,0.00
2014-3-25,29.1,23.4,14.9,17.8,11.6,-9.3,77,61,44,30.15,29.85,14,3,14,0.00
2014-3-26,34.3,20.7,9.6,15.6,7.2,1.8,73,56,42,30.30,30.11,13,2,13,0.00
2014-3-27,39.0,33.4,28.9,34.7,24.7,-10.9,85,71,55,30.12,29.57,15,2,15,0.18
2014-3-28,46.0,40.0,30.9,42.7,33.9,-16.8,88,81,70,30.18,29.45,18,2,18,0.22
2014-3-29,38.4,33.1,28.5,29.7,25.0,-11.6,81,73,20,30.21,30.13,16,3,16,0.00
2014-3-30,50.7,35.1,24.6,27.9,22.1,-5.5,77,60,39,30.22,30.09,10,1,10,0.00
2014-3-31,64.2,45.6,30.0,36.7,27.7,-8.0,70,52,20,30.15,29.89,12,2,12,0.00
2014-4-1,56.1,42.1,32.5,42.5,29.2,22.5,69,61,43,29.97,29.64,22,6,22,0.19
2014-4-2,55.9,37.7,27.6,31.8,24.6,-8.0,73,60,38,30.19,29.97,11,1,11,0.00
2014-4-3,37.2,33.4,30.5,28.3,25.2,-7.4,77,72,67,30.19,29.88,16,3,16,0.00
2014-4-4,43.1,36.8,33.8,39.9,31.4,-6.6,89,81,73,29.84,29.38,22,3,22,0.37
2014-4-5,50.1,36.4,28.4,27.1,22.4,19.0,76,58,35,30.14,29.66,19,5,19,0.00
2014-4-6,61.3,42.9,28.4,34.1,25.7,19.0,72,52,34,30.15,29.98,10,2,11,0.00
2014-4-7,54.5,42.3,31.8,33.2,26.9,20.6,68,55,43,30.00,29.52,10,3,10,0.00
2014-4-8,61.3,47.5,38.1,35.0,29.8,-10.6,63,52,34,29.81,29.48,15,3,15,0.00
2014-4-9,58.8,45.6,32.1,30.9,26.4,20.6,66,48,32,29.98,29.81,15,2,15,0.00
2014-4-10,66.3,54.1,46.9,41.8,36.1,-18.5,59,51,5,29.85,29.57,19,6,19,0.04
2014-4-11,65.1,50.3,35.2,33.2,28.9,25.2,69,46,26,30.01,29.85,12,2,12,0.00
2014-4-12,66.2,47.5,37.7,45.5,34.5,-23.9,88,62,38,30.08,29.82,19,3,19,1.27
2014-4-13,66.9,55.9,48.3,57.2,50.2,-2.7,89,82,69,29.89,29.58,14,2,14,0.87
2014-4-14,62.2,48.8,26.9,56.2,41.5,-2.2,91,77,62,29.85,29.33,61,5,61,0.19
2014-4-15,34.7,27.7,23.7,22.5,15.3,-4.9,84,62,39,30.20,29.81,18,6,18,0.08
2014-4-16,49.1,33.9,4.6,23.9,18.2,-9.6,75,54,36,30.42,30.20,13,2,13,0.02
2014-4-17,66.3,48.1,31.6,37.7,29.1,17.9,63,49,33,30.34,30.14,17,3,17,0.10
2014-4-18,60.9,49.6,36.5,39.7,35.4,-9.3,73,59,42,30.37,30.20,12,3,12,0.00
2014-4-19,63.6,43.5,29.1,38.7,31.6,23.1,81,64,37,30.47,30.29,12,2,12,0.00
2014-4-20,76.8,54.8,35.7,39.3,34.0,27.8,74,49,24,30.32,30.04,12,2,12,0.00
2014-4-21,79.8,64.4,54.5,53.2,44.3,-18.1,86,50,20,30.04,29.71,17,4,17,0.16
2014-4-22,56.8,45.8,37.0,53.3,36.0,-2.7,88,70,58,29.95,29.65,21,7,21,0.04
2014-4-23,62.6,43.9,32.1,28.9,26.7,-7.7,78,54,26,30.11,29.96,13,4,13,0.00
2014-4-24,62.4,47.6,36.5,29.6,23.8,-12.3,56,40,27,30.16,29.86,12,1,12,0.00
2014-4-25,57.0,44.9,40.2,45.5,33.8,-14.2,82,66,43,29.88,29.66,12,1,12,0.20
2014-4-26,48.7,43.7,40.2,39.2,34.4,30.7,82,70,59,30.11,29.74,15,4,15,0.00
2014-4-27,58.8,44.4,32.7,37.0,30.8,-7.7,78,60,41,30.19,30.08,17,4,17,0.00
2014-4-28,59.1,48.9,39.7,36.4,31.3,-21.6,61,51,41,30.11,29.80,18,6,18,0.00
2014-4-29,74.8,54.9,43.8,58.6,44.9,-13.8,89,71,50,29.81,29.53,12,3,12,0.80
2014-4-30,65.1,57.9,52.5,52.1,49.6,-3.9,86,75,59,29.77,29.69,13,2,13,0.02
2014-5-1,55.2,47.1,41.3,48.6,38.6,-4.7,81,73,58,29.73,29.67,20,6,20,0.02
2014-5-2,53.2,47.7,43.3,43.0,40.9,-3.9,86,77,66,29.74,29.66,17,6,17,0.02
2014-5-3,59.1,49.5,45.3,47.5,41.0,34.8,89,74,46,29.81,29.57,23,4,23,0.19
2014-5-4,59.9,47.2,40.2,38.7,34.3,-4.9,82,63,38,30.07,29.80,24,4,24,0.04
2014-5-5,62.7,46.4,36.5,43.5,35.7,29.0,78,67,48,30.10,29.95,9,1,9,0.00
2014-5-6,60.4,49.5,39.0,42.7,37.5,-7.7,83,64,48,30.11,29.98,15,4,15,0.00
2014-5-7,58.8,48.3,41.3,49.2,40.2,29.3,85,74,60,30.13,29.93,13,3,13,0.33
2014-5-8,87.0,65.1,48.0,66.2,53.7,-5.5,81,68,49,29.97,29.80,11,2,11,0.06
2014-5-9,75.9,71.3,60.9,62.0,57.6,-9.3,72,62,49,29.82,29.61,26,7,26,0.04
2014-5-10,72.5,60.0,50.5,47.1,39.5,-9.3,71,50,26,29.95,29.74,18,6,18,0.00
2014-5-11,82.0,64.3,45.6,53.2,43.6,-12.7,73,50,32,30.04,29.90,10,2,10,0.00
2014-5-12,69.4,65.5,62.2,65.1,57.5,-10.2,90,79,55,30.01,29.88,11,1,11,0.63
2014-5-13,79.5,68.4,59.1,68.7,62.3,-2.0,91,81,64,30.03,29.82,18,4,18,0.15
2014-5-14,59.1,54.1,48.5,51.6,45.1,-6.9,78,74,65,30.13,30.00,72,4,72,0.04
2014-5-15,48.5,44.9,37.9,44.0,40.0,-3.9,90,86,74,30.00,29.70,22,5,22,1.51
2014-5-16,50.1,42.9,35.2,36.5,33.2,-4.9,83,70,20,30.02,29.95,12,3,12,0.00
2014-5-17,55.0,44.8,36.3,43.9,34.7,29.1,80,68,49,30.13,30.01,13,2,13,0.06
2014-5-18,69.4,55.5,42.8,40.3,37.0,34.1,78,52,32,30.18,30.13,23,5,23,0.00
2014-5-19,72.1,60.4,48.9,44.5,40.7,-10.6,68,49,34,30.25,30.09,14,3,14,0.00
2014-5-20,74.1,59.6,52.7,60.2,49.0,-6.3,83,70,47,30.16,29.83,11,2,11,0.18
2014-5-21,84.9,67.3,55.2,64.0,54.8,46.9,87,67,30,29.86,29.75,16,2,16,0.06
2014-5-22,73.2,61.1,53.4,52.2,47.2,-7.2,76,62,40,30.06,29.84,14,3,14,0.00
2014-5-23,77.7,57.7,46.5,54.1,44.9,-10.2,77,63,43,30.15,30.04,10,2,10,0.00
2014-5-24,80.9,64.0,48.9,49.9,44.4,-21.7,79,56,31,30.20,30.09,8,1,8,0.00
2014-5-26,79.1,76.0,68.7,61.9,59.3,-5.8,76,60,53,29.90,0.00,4,0,4,47.01
2014-5-27,78.4,71.7,67.2,68.7,63.0,-7.2,87,77,65,29.90,29.83,10,2,10,0.39
2014-5-28,69.4,62.5,55.0,62.9,51.8,-5.8,85,70,53,30.10,29.89,11,3,11,0.02
2014-5-29,78.0,61.6,47.8,57.9,50.1,-4.7,85,68,46,30.16,30.08,9,1,9,0.00
2014-5-30,88.8,67.4,51.9,59.9,52.0,46.3,83,60,36,30.21,30.10,8,1,8,0.00
2014-5-31,90.6,72.0,57.9,58.8,51.4,-13.1,71,50,33,30.25,30.10,9,1,9,0.00
2014-6-1,88.7,73.1,58.2,59.5,51.5,-14.6,61,48,36,30.16,29.93,12,2,12,0.00
2014-6-2,83.8,74.1,68.3,69.2,61.9,-13.8,82,67,50,29.95,29.74,19,4,19,0.02
2014-6-3,76.6,70.4,64.0,64.8,56.1,-3.9,86,63,41,29.88,29.73,20,5,20,0.00
2014-6-4,75.3,65.7,59.0,54.1,49.9,-35.3,74,59,40,29.90,29.80,8,1,8,0.00
2014-6-5,85.2,65.2,51.8,50.3,44.5,-12.3,71,50,29,29.95,29.86,10,1,10,0.00
2014-6-6,88.5,67.0,51.9,53.9,46.1,-10.2,70,49,29,30.00,29.94,8,0,8,0.00
2014-6-7,89.2,71.8,56.1,56.2,50.2,45.2,72,49,28,30.04,29.86,8,0,8,0.00
2014-6-8,79.5,69.3,61.5,60.9,53.2,-15.4,71,58,44,30.00,29.82,9,1,9,0.02
2014-6-9,81.6,66.9,56.1,58.7,52.9,-6.9,79,64,42,30.04,29.93,9,0,9,0.00
2014-6-10,77.0,67.6,57.5,55.1,50.9,-11.6,70,56,46,29.98,29.89,9,0,9,0.04
2014-6-11,72.6,66.2,62.0,66.1,57.9,-13.1,89,76,51,29.89,29.70,2,0,2,1.12
2014-6-12,78.6,68.6,62.4,64.6,61.7,59.4,91,80,60,29.76,29.69,11,1,11,0.00
2014-6-13,69.6,58.6,49.1,61.7,47.4,-7.2,77,67,59,30.02,29.72,12,2,12,0.10
2014-6-14,80.2,58.4,44.7,54.1,45.7,-3.9,84,65,39,30.13,30.01,8,0,8,0.00
2014-6-15,84.0,68.3,55.2,57.1,51.8,45.6,73,57,39,30.12,29.89,15,1,15,0.02
2014-6-16,88.5,77.0,68.5,64.5,58.9,-9.3,80,56,36,30.02,29.91,11,2,11,0.24
2014-6-17,85.6,76.0,66.9,69.9,61.7,-9.3,77,64,48,29.97,29.75,20,3,20,0.08
2014-6-18,73.9,68.1,64.7,67.7,63.0,-15.3,90,84,69,30.05,29.88,8,0,8,0.86
2014-6-19,76.1,68.8,60.6,61.8,56.4,-4.2,83,66,41,30.16,30.02,9,1,9,0.00
2014-6-20,68.5,62.4,55.9,60.0,53.2,45.2,86,72,58,30.14,29.97,0,0,0,0.22
2014-6-21,79.8,67.3,58.1,61.2,55.5,51.3,84,67,50,30.01,29.89,3,0,3,0.00
2014-6-22,85.6,71.6,60.4,63.1,56.4,-10.9,79,61,45,29.95,29.84,4,0,4,0.12
2014-6-23,75.9,69.9,61.7,68.1,60.7,52.7,87,73,61,29.91,29.82,0,0,0,0.31
2014-6-24,79.3,71.2,67.8,69.7,66.8,-2.2,91,86,71,29.87,29.82,5,0,5,0.51
2014-6-25,75.7,67.2,63.3,65.0,60.4,-2.7,89,80,63,30.02,29.87,8,0,8,0.06
2014-6-26,85.2,68.4,56.4,62.7,57.5,0.0,87,69,45,30.07,30.00,2,0,2,0.04
2014-6-27,86.7,71.7,58.6,66.2,58.2,-21.3,77,63,49,30.12,30.03,1,0,1,0.04
2014-6-28,87.0,75.8,64.2,70.0,64.3,-6.9,81,69,50,30.11,30.00,13,1,13,0.04
2014-6-29,87.4,77.7,71.7,71.2,66.7,63.2,84,70,48,30.02,29.87,18,3,18,0.06
2014-6-30,87.6,78.5,72.5,71.2,67.9,-6.6,85,72,57,29.90,29.68,13,2,13,0.10
2014-7-1,82.2,73.6,67.2,69.6,63.0,58.9,88,71,48,29.71,29.53,18,5,18,0.24
2014-7-2,71.9,68.8,62.9,61.2,57.4,-7.2,82,70,60,29.95,29.70,19,4,19,0.12
2014-7-3,73.7,61.8,51.9,59.4,52.6,44.7,84,72,59,30.15,29.94,10,1,10,0.31
2014-7-4,81.3,64.4,51.8,55.8,50.1,-4.2,87,63,34,30.28,30.14,9,1,9,0.06
2014-7-5,78.0,67.3,54.6,55.7,51.0,-9.6,81,59,39,30.27,30.04,13,2,13,0.04
2014-7-6,80.4,71.0,60.9,67.1,59.4,19.9,87,67,56,30.04,29.68,13,4,13,0.37
2014-7-7,86.7,74.6,66.3,68.4,64.0,-2.2,92,72,42,29.73,29.59,19,3,19,1.45
2014-7-8,74.8,68.9,63.6,65.0,60.1,57.3,90,74,59,29.75,29.51,18,2,18,0.61
2014-7-9,75.7,63.5,55.5,58.0,53.0,50.2,85,70,47,30.01,29.74,10,1,10,0.08
2014-7-10,98.6,67.5,58.2,63.0,52.6,-7.2,75,61,30,30.17,30.01,8,1,8,0.00
2014-7-11,85.1,69.3,55.9,60.8,55.6,50.5,83,63,43,30.22,30.10,9,1,9,0.00
2014-7-12,83.4,73.2,63.5,68.4,62.1,-6.9,87,70,49,30.13,29.83,10,1,10,0.08
2014-7-13,88.7,74.3,69.2,68.1,64.0,-23.9,92,72,44,29.87,29.69,17,3,17,1.14
2014-7-14,82.7,70.7,62.9,62.6,56.7,-5.2,80,64,39,29.87,29.73,12,2,12,0.00
2014-7-15,73.0,62.9,56.3,59.6,53.5,48.5,85,72,54,29.88,29.69,14,2,14,0.00
2014-7-16,69.0,60.6,52.8,54.6,50.9,47.1,83,71,55,29.98,29.87,11,1,11,0.12
2014-7-17,88.5,65.2,51.4,58.1,51.9,46.9,85,65,35,30.08,29.97,15,2,15,0.00
2014-7-18,90.3,69.0,54.3,61.2,53.5,48.9,83,60,36,30.21,30.11,9,1,9,0.00
2014-7-19,97.8,72.4,58.8,67.6,57.2,-7.4,79,61,37,30.13,30.01,9,1,9,0.00
2014-7-20,93.7,71.8,58.8,64.7,59.1,1.5,85,67,37,30.08,30.00,8,0,8,0.00
2014-7-21,94.8,75.6,64.2,66.8,62.2,57.6,83,65,40,30.10,30.03,9,2,9,0.06
2014-7-22,94.8,77.7,66.3,70.8,64.6,58.7,77,65,45,30.08,29.86,16,3,16,0.00
2014-7-23,79.1,69.6,61.3,68.1,57.9,-23.1,83,67,55,30.09,29.88,11,2,11,0.04
2014-7-24,88.5,65.7,53.7,59.1,51.7,46.7,77,62,37,30.13,30.02,8,0,8,0.00
2014-7-25,77.3,66.2,55.2,58.0,53.6,49.3,81,65,47,30.06,29.91,10,1,10,0.02
2014-7-26,82.0,70.9,61.5,66.3,60.4,6.0,80,70,58,29.92,29.74,9,2,9,0.02
2014-7-27,82.0,68.3,61.3,70.8,62.1,55.9,89,81,59,29.76,29.59,12,1,12,0.41
2014-7-28,77.7,63.1,57.0,58.5,53.1,25.1,91,71,42,30.00,29.73,12,2,12,0.12
2014-7-29,73.7,59.7,50.9,60.5,52.4,46.0,89,77,58,29.98,29.90,8,1,8,0.49
2014-7-30,89.6,65.6,54.5,58.7,54.1,50.8,91,70,33,30.00,29.93,9,0,9,0.00
2014-7-31,81.6,66.6,55.9,62.8,55.4,31.1,80,68,49,30.00,29.95,12,2,12,0.00
2014-8-1,85.8,70.7,61.5,64.7,60.3,56.4,85,71,46,30.08,30.00,9,1,9,0.00
2014-8-2,88.7,70.8,58.6,66.5,59.8,54.4,86,70,47,30.12,30.06,6,0,6,0.00
2014-8-3,94.8,72.7,60.0,65.5,60.6,55.5,86,68,37,30.12,30.02,8,1,8,0.02
2014-8-4,84.7,71.8,64.2,66.2,62.3,58.6,85,73,54,30.08,30.00,12,1,12,0.08
2014-8-5,97.5,70.3,21.9,65.9,60.9,18.4,90,75,32,30.09,30.00,8,0,8,0.94
2014-8-6,93.7,71.0,62.0,62.6,57.7,29.8,86,65,33,30.06,30.01,8,0,8,0.00
2014-8-7,97.3,70.3,58.2,68.8,57.9,52.1,81,66,38,30.12,30.05,9,1,9,0.00
2014-8-8,88.1,69.2,57.5,64.3,56.5,51.6,83,65,45,30.17,30.10,8,0,8,0.04
2014-8-9,92.8,69.1,55.4,67.5,57.4,50.3,84,68,42,30.16,30.08,9,1,9,0.00
2014-8-10,88.5,70.8,57.7,68.7,60.3,52.6,84,70,51,30.12,29.99,9,1,9,0.08
2014-8-11,81.6,68.6,29.1,69.4,62.4,23.1,91,81,65,30.01,29.69,6,0,6,2.83
2014-8-12,75.0,65.3,58.8,63.8,59.8,53.3,91,83,67,29.85,29.62,10,2,10,0.02
2014-8-13,87.4,64.7,53.7,56.0,51.2,15.9,85,64,33,29.99,29.84,10,3,10,0.00
2014-8-14,82.7,60.5,49.2,49.7,45.2,41.0,81,59,30,30.05,29.95,15,2,15,0.00
2014-8-15,83.8,61.9,48.0,54.2,46.7,40.9,79,59,35,30.03,29.91,12,2,12,0.00
2014-8-16,77.7,65.6,54.6,66.4,56.8,46.7,84,73,62,29.93,29.81,14,3,14,0.00
2014-8-17,94.4,69.0,59.5,67.4,59.5,55.3,87,73,39,30.02,29.91,10,1,10,0.00
2014-8-18,91.9,69.3,58.1,69.6,59.2,52.4,85,71,47,30.00,29.81,8,1,8,0.04
2014-8-19,74.8,68.1,64.4,67.2,62.8,58.7,90,83,73,29.81,29.71,9,0,9,0.37
2014-8-20,87.0,71.0,65.4,72.2,64.4,60.3,91,81,56,29.93,29.74,12,1,12,0.82
2014-8-21,79.8,68.8,59.3,66.6,61.8,56.1,89,79,63,30.00,29.93,7,0,7,0.00
2014-8-22,82.2,72.1,65.3,68.3,63.8,61.1,87,76,60,30.02,29.93,8,1,8,0.00
2014-8-23,89.7,71.1,62.4,71.8,63.4,41.9,88,77,55,30.08,30.01,9,1,9,0.00
2014-8-24,86.0,70.7,62.9,70.6,63.7,59.1,88,79,59,30.12,30.05,5,0,5,0.00
2014-8-25,85.2,74.4,65.1,73.6,67.5,61.1,87,79,68,30.09,29.97,8,0,8,0.04
2014-8-26,82.0,75.1,68.5,72.8,68.8,63.7,91,81,70,30.05,29.98,9,2,9,0.00
2014-8-27,87.6,68.6,59.9,66.1,58.7,52.6,87,72,46,30.14,30.05,9,1,9,0.04
2014-8-28,91.2,63.6,51.4,63.3,51.6,17.8,81,66,20,30.18,30.09,9,1,9,0.00
2014-8-29,76.2,67.4,60.0,61.8,55.3,49.2,74,65,57,30.12,29.95,20,1,20,0.00
2014-8-30,81.3,72.6,67.6,71.0,65.1,56.8,88,78,65,29.97,29.77,12,2,12,0.25
2014-8-31,92.3,73.6,66.7,72.0,66.3,64.0,91,79,52,29.94,29.85,8,1,8,0.00
2014-9-1,83.3,72.1,64.4,73.4,66.9,0.0,91,84,67,29.89,29.70,19,2,19,0.81
2014-9-2,90.5,72.2,64.0,65.9,60.8,55.1,90,70,37,29.92,29.78,10,2,10,0.00
2014-9-3,96.0,70.9,58.8,67.1,59.2,54.3,86,69,38,30.02,29.92,9,1,9,0.08
2014-9-4,87.6,72.5,62.9,70.7,63.3,-15.3,84,74,6,30.02,29.90,11,2,11,0.00
2014-9-5,85.8,76.4,66.5,74.7,69.4,59.4,86,79,68,29.98,29.82,12,3,12,0.06
2014-9-6,85.2,66.6,59.7,59.6,54.2,49.2,82,66,37,30.12,29.94,10,1,11,0.00
2014-9-7,88.8,64.3,51.8,59.5,52.1,46.8,84,67,35,30.20,30.12,9,1,9,0.00
2014-9-8,92.8,66.4,53.2,62.7,53.4,11.7,86,65,35,30.19,30.04,8,1,8,0.04
2014-9-9,93.3,69.2,59.3,63.7,56.7,52.2,82,66,36,30.05,29.93,8,1,8,0.00
2014-9-10,72.6,68.4,63.3,69.2,62.6,56.2,90,82,72,29.95,29.49,16,2,16,0.22
2014-9-11,62.7,54.6,50.5,57.1,46.4,43.4,82,74,67,30.21,29.59,15,3,15,0.00
2014-9-12,57.7,50.9,48.0,49.1,45.5,43.0,89,82,69,30.30,30.17,8,0,8,0.24
2014-9-13,73.9,51.6,44.7,51.1,43.6,40.7,91,76,41,30.31,30.09,11,1,11,0.53
2014-9-14,62.7,52.6,43.3,46.0,42.9,38.5,85,71,51,30.32,30.16,10,2,11,0.00
2014-9-15,59.9,52.3,46.5,51.8,46.6,41.9,89,81,71,30.16,30.05,8,0,8,0.10
2014-9-16,72.5,53.9,44.4,50.7,45.5,41.7,91,75,44,30.15,30.05,11,1,11,0.00
2014-9-17,76.8,55.0,42.2,50.0,44.4,38.3,87,70,37,30.05,29.94,9,2,9,0.00
2014-9-18,60.8,52.8,44.4,50.9,45.7,38.6,85,77,65,30.22,30.00,8,1,8,0.00
2014-9-19,75.3,53.0,38.1,54.1,43.5,34.3,86,72,47,30.26,29.97,9,1,61,0.00
2014-9-20,79.1,64.4,53.7,65.8,56.4,47.7,91,76,62,29.97,29.70,14,4,14,0.33
2014-9-21,64.5,57.6,47.1,61.8,53.2,38.5,91,85,71,30.02,29.55,14,2,14,1.14
2014-9-22,65.8,52.2,44.6,48.7,42.3,37.8,82,70,52,30.21,30.02,10,2,10,0.00
2014-9-23,87.4,58.6,45.5,61.2,49.3,42.2,88,73,39,30.32,30.20,9,2,9,0.00
2014-9-24,90.6,61.4,48.0,63.6,51.6,44.3,87,72,39,30.42,30.31,8,0,8,0.04
2014-9-25,88.8,62.4,48.2,62.5,51.9,44.2,87,71,39,30.33,30.23,7,0,7,0.00
2014-9-26,94.1,62.5,48.7,66.1,53.3,45.0,88,74,39,30.31,30.23,6,0,6,0.04
2014-9-27,87.4,62.9,49.8,64.7,53.9,46.4,88,74,46,30.30,30.17,8,0,8,0.00
2014-9-28,85.2,63.2,52.5,63.2,54.5,48.8,87,75,47,30.19,30.04,7,0,7,0.00
2014-9-29,85.2,63.2,51.0,62.7,54.1,42.8,88,74,45,30.04,29.84,10,2,10,0.24
2014-9-30,56.3,52.1,49.1,49.9,46.5,44.0,88,81,70,30.03,29.90,9,1,9,0.02
2014-10-1,80.6,58.2,50.3,60.3,51.7,46.8,90,80,49,30.07,29.97,9,0,9,0.00
2014-10-2,67.2,60.5,52.3,60.0,55.5,48.4,90,84,74,30.02,29.73,9,0,9,0.00
2014-10-3,66.0,60.9,50.5,61.9,55.5,42.9,92,83,60,29.75,29.34,20,4,20,0.81
2014-10-4,50.5,44.6,41.3,42.9,37.8,35.6,87,77,64,29.62,29.56,18,5,18,0.02
2014-10-5,58.8,46.6,41.9,39.9,37.4,11.7,87,72,20,29.66,29.61,16,3,16,0.00
2014-10-6,64.0,51.3,46.0,46.5,42.8,38.4,89,73,52,29.64,29.51,20,2,20,0.13
2014-10-7,65.1,51.7,42.6,52.1,44.1,39.1,90,77,53,29.70,29.59,13,2,13,0.00
2014-10-8,58.4,49.7,39.3,46.6,36.7,-19.8,89,63,37,29.95,29.69,22,5,22,0.04
2014-10-9,67.2,46.2,36.6,43.4,35.4,31.3,82,67,40,30.09,29.94,18,2,18,0.00
2014-10-10,66.7,45.5,14.0,42.9,35.0,4.4,85,68,40,30.16,30.08,11,1,11,0.00
2014-10-11,41.9,40.6,40.2,34.2,33.5,33.1,76,75,74,30.15,30.13,0,0,0,0.00
2014-10-12,49.8,49.8,49.8,38.9,38.9,38.9,66,66,66,29.98,29.98,0,0,0,0.00
2014-10-13,66.0,59.7,50.7,60.9,55.0,41.7,90,84,71,29.95,29.72,10,0,10,67.73
2014-10-14,69.4,64.3,57.9,61.8,58.8,15.7,91,83,72,29.72,29.57,13,2,13,0.76
2014-10-15,66.0,59.1,54.3,57.0,53.8,51.9,92,83,66,29.79,29.64,9,0,9,0.04
2014-10-16,62.0,56.7,53.2,55.0,51.7,16.4,90,84,71,29.77,29.64,8,1,8,0.02
2014-10-17,61.7,54.2,45.1,51.7,48.6,-3.0,90,82,64,29.64,29.43,17,4,17,0.13
2014-10-18,59.1,44.2,36.5,44.3,37.1,29.0,88,76,56,30.11,29.64,13,3,13,0.00
2014-10-19,52.8,41.3,29.4,38.9,32.3,11.5,84,71,55,30.17,29.90,61,2,61,0.00
2014-10-20,59.7,50.6,45.6,49.9,44.2,38.9,86,79,69,29.90,29.74,10,2,10,0.02
2014-10-21,57.7,46.1,40.8,42.4,38.1,32.1,83,74,55,30.24,29.87,12,3,12,0.00
2014-10-22,49.8,44.1,37.2,41.3,36.8,3.8,82,75,71,30.35,30.24,8,1,8,0.00
2014-10-23,63.1,40.3,30.3,45.0,33.7,-23.2,87,78,51,30.27,30.06,8,1,8,0.00
2014-10-24,61.1,48.0,37.0,49.0,41.4,14.3,86,78,62,30.06,29.89,10,1,10,0.00
2014-10-25,69.9,54.8,45.6,51.6,42.2,33.4,90,66,28,29.89,29.66,20,4,20,0.10
2014-10-26,66.7,48.9,39.0,37.6,33.1,30.4,72,55,34,29.93,29.80,12,2,12,0.00
2014-10-27,73.2,52.5,33.6,54.1,40.9,28.1,81,66,46,29.94,29.62,10,1,10,0.00
2014-10-28,67.4,59.8,48.0,56.3,47.8,34.4,88,66,41,29.84,29.59,19,6,19,0.08
2014-10-29,54.5,46.1,39.2,39.0,35.4,32.1,76,66,53,30.07,29.82,12,3,12,0.00
2014-10-30,50.5,42.4,33.4,39.0,35.1,29.0,85,76,60,30.12,29.95,8,1,8,0.00
2014-10-31,43.3,39.8,34.1,37.5,35.4,30.6,88,84,77,30.06,29.87,15,1,15,0.24
2014-11-6,68.7,38.0,35.7,34.7,30.7,-5.8,85,78,70,30.04,0.00,6,0,6,0.00
2014-11-7,45.1,37.1,29.8,28.7,26.1,-8.0,81,65,48,30.10,29.88,8,0,8,0.00
2014-11-8,44.4,38.0,35.4,37.8,32.3,-8.0,88,80,68,29.89,29.64,10,0,10,0.08
2014-11-9,45.1,38.4,32.1,32.3,29.1,-24.6,79,69,54,29.85,29.71,17,1,17,0.00
2014-11-10,57.9,45.2,38.4,43.6,36.4,-20.4,84,72,56,29.92,29.65,10,0,10,0.02
2014-11-11,52.5,46.1,35.2,45.8,36.6,-22.1,86,70,58,29.85,29.56,20,1,20,0.10
2014-11-12,35.2,32.2,29.3,27.7,21.6,0.0,75,65,53,30.17,29.85,11,1,11,0.00
2014-11-13,36.3,29.8,23.7,22.8,19.3,-4.7,76,65,50,30.15,30.08,8,0,8,0.27
2014-11-14,35.7,29.2,23.3,24.2,20.9,17.3,81,71,58,30.28,30.12,7,0,7,0.00
2014-11-15,33.4,29.0,24.6,22.8,20.1,17.8,81,69,57,30.31,30.17,9,0,9,0.00
2014-11-16,33.0,29.2,25.5,25.7,23.3,20.8,83,78,74,30.17,29.84,0,0,0,0.00
2014-11-17,30.2,25.3,14.7,25.2,17.8,8.2,82,73,53,29.84,29.61,13,0,13,0.02
2014-11-18,26.7,18.3,13.8,13.6,10.7,7.9,80,72,52,30.01,29.69,20,1,20,0.12
2014-11-19,26.2,21.5,14.5,20.2,14.8,9.0,82,75,65,30.01,29.63,8,0,8,0.00
2014-11-20,30.2,20.4,14.1,15.8,11.5,6.8,81,69,45,30.13,29.76,15,0,15,0.00
2014-11-21,14.1,11.7,9.6,7.7,6.3,4.7,80,78,75,30.36,30.13,0,0,0,0.00
2014-11-22,46.9,42.0,38.6,43.3,38.5,34.5,90,87,85,29.88,29.84,6,0,6,0.00
2014-11-23,50.7,47.9,44.9,45.5,43.7,-8.6,90,85,80,29.87,29.18,8,0,8,0.88
2014-11-24,53.2,45.3,32.7,49.7,41.1,-2.9,92,85,20,29.59,28.97,24,6,24,1.28
2014-11-25,36.1,31.7,30.0,26.3,23.9,20.7,83,73,64,30.17,29.59,22,6,22,0.00
2014-11-26,34.8,30.8,29.1,23.8,22.1,20.9,76,70,62,30.18,30.09,8,0,8,0.00